x

8447387 - Borden Flats Light At Fall River, Ma (bltm3) Weather Station

10:30 - Tue 27th Jan 2015 All times are EST. -5 hours from GMT.

  • Wind
    16mph, 23mph gusts
  • Ar Temp 16°f
  • Sea Pressure 1003.4mb
  • 8447387 - Borden Flats Light At Fall River, Ma
  • 8447387 - Borden Flats Light At Fall River, Ma

More Historic Weather Station data

Upgrade to MSW Pro to gain access to the past 30 days of data for over 8000 Wavebouys and Weather Stations around the globe.

Join Pro

Comparision Forecast

View Surf forecast
   
Ter 01/27 10:30 16 23 mph 1003.4mb 16f
10:24 14 20 mph 1003.3mb 16f
10:18 15 20 mph 1003.2mb 16f
10:12 16 22 mph 1003.2mb 16f
10:06 16 21 mph 1003mb 16f
10:00 16 21 mph 1002.9mb 16f
9:54 14 18 mph 1002.8mb 16f
9:48 16 20 mph 1002.7mb 16f
9:42 14 17 mph 1002.6mb 16f
9:36 14 21 mph 1002.6mb 16f
9:30 15 20 mph 1002.5mb 16f
9:24 16 20 mph 1002.4mb 16f
9:18 15 20 mph 1002.3mb 16f
9:12 17 22 mph 1002.2mb 17f
9:06 15 21 mph 1002.2mb 16f
9:00 16 24 mph 1002.1mb 17f
8:54 15 20 mph 1002.2mb 17f
8:48 16 20 mph 1002.1mb 17f
8:42 15 22 mph 1002mb 17f
8:36 18 22 mph 1001.9mb 17f
8:30 17 23 mph 1001.8mb 17f
8:24 15 23 mph 1001.7mb 17f
8:18 17 22 mph 1001.6mb 17f
8:12 18 24 mph 1001.5mb 17f
8:06 21 24 mph 1001.3mb 18f
8:00 20 29 mph 1001.2mb 18f
7:54 15 22 mph 1001.2mb 18f
7:48 15 21 mph 1001.1mb 19f
7:42 15 22 mph 1001mb 19f
7:36 16 21 mph 1000.9mb 19f
7:30 20 28 mph 1000.8mb 19f
7:24 16 23 mph 1000.7mb 19f
7:18 20 28 mph 1000.6mb 19f
7:12 18 24 mph 1000.5mb 19f
7:06 17 26 mph 1000.3mb 19f
7:00 23 31 mph 1000.1mb 19f
6:54 23 37 mph 1000.1mb 19f
6:48 21 30 mph 1000mb 19f
6:42 22 28 mph 999.9mb 19f
6:36 16 23 mph 999.9mb 19f
6:30 22 30 mph 999.7mb 19f
6:24 20 25 mph 999.8mb 19f
6:18 21 29 mph 999.6mb 19f
6:12 20 25 mph 999.5mb 20f
6:06 22 30 mph 999.4mb 20f
6:00 20 26 mph 999.3mb 20f
5:54 15 22 mph 999.3mb 20f
5:48 16 25 mph 999.2mb 20f
5:42 17 26 mph 999.1mb 19f
5:36 23 33 mph 998.9mb 19f
5:30 20 30 mph 998.9mb 19f
5:24 20 26 mph 998.7mb 19f
5:18 22 29 mph 998.5mb 19f
5:12 20 26 mph 998.6mb 19f
5:06 20 25 mph 998.4mb 19f
5:00 25 32 mph 998.3mb 19f
4:54 22 33 mph 998.3mb 19f
4:48 26 43 mph 998.1mb 19f
4:42 20 25 mph 998.2mb 19f
4:36 24 32 mph 998mb 19f
4:30 23 30 mph 998mb 19f
4:24 21 33 mph 998mb 19f
4:18 24 34 mph 997.8mb 19f
4:12 21 28 mph 997.8mb 19f
4:06 28 37 mph 997.5mb 19f
4:00 20 29 mph 997.7mb 19f
3:54 22 31 mph 997.6mb 19f
3:48 25 37 mph 997.5mb 19f
3:42 22 31 mph 997.5mb 19f
3:36 23 29 mph 997.4mb 19f
3:30 18 25 mph 997.6mb 19f
3:24 21 33 mph 997.6mb 19f
3:18 22 30 mph 997.5mb 19f
3:12 17 28 mph 997.6mb 19f
3:06 21 25 mph 997.5mb 19f
3:00 25 36 mph 997.4mb 19f
2:54 23 31 mph 997.3mb 19f
2:48 23 36 mph 997.3mb 19f
2:42 21 34 mph 997.3mb 19f
2:36 22 31 mph 997.2mb 19f
2:30 23 34 mph 997mb 19f
2:24 25 37 mph 996.9mb 19f
2:18 24 31 mph 996.8mb 19f
2:12 29 37 mph 996.7mb 19f
2:06 24 32 mph 996.8mb 19f
2:00 28 38 mph 996.6mb 19f
1:54 21 29 mph 996.7mb 19f
1:48 21 26 mph 996.7mb 19f
1:42 23 31 mph 996.7mb 19f
1:36 22 30 mph 996.7mb 19f
1:30 20 26 mph 996.7mb 19f
1:24 28 39 mph 996.5mb 19f
1:18 21 31 mph 996.7mb 19f
1:12 21 30 mph 996.7mb 18f
1:06 23 31 mph 996.5mb 18f
1:00 23 31 mph 996.5mb 18f
12:54 22 30 mph 996.4mb 18f
12:48 22 29 mph 996.4mb 18f
12:42 26 36 mph 996.3mb 18f
12:36 21 29 mph 996.4mb 18f
12:30 22 31 mph 996.3mb 19f
12:24 16 24 mph 996.4mb 19f
12:18 18 24 mph 996.4mb 18f
12:12 21 28 mph 996.3mb 18f
12:06 21 26 mph 996.4mb 18f
12:00 22 29 mph 996.5mb 18f
11:54 23 32 mph 996.5mb 18f
11:48 24 31 mph 996.4mb 18f
11:42 21 29 mph 996.6mb 18f
11:36 21 31 mph 996.6mb 18f
11:30 21 30 mph 996.6mb 18f
11:24 20 26 mph 996.7mb 18f
11:18 21 30 mph 996.8mb 18f
11:12 16 24 mph 996.7mb 18f
11:06 20 26 mph 996.8mb 18f
11:00 21 30 mph 996.8mb 19f
10:54 20 29 mph 996.7mb 19f
10:48 17 24 mph 996.9mb 19f
10:42 17 24 mph 996.8mb 19f
10:36 17 24 mph 996.8mb 19f
10:30 22 31 mph 996.7mb 19f
10:24 21 29 mph 996.7mb 20f
10:18 18 28 mph 996.8mb 20f
10:12 22 34 mph 996.7mb 19f
10:06 22 29 mph 996.6mb 19f
10:00 24 39 mph 996.4mb 19f
9:54 21 33 mph 996.5mb 19f
9:48 23 31 mph 996.4mb 19f
9:42 29 37 mph 996.1mb 19f
9:36 28 38 mph 996.2mb 19f
9:30 29 38 mph 996.1mb 19f
9:24 30 39 mph 996.1mb 19f
9:18 31 48 mph 996.2mb 18f
9:12 30 41 mph 996.4mb 18f
9:06 26 38 mph 996.5mb 18f
9:00 26 34 mph 996.7mb 18f
8:54 29 45 mph 996.9mb 18f
8:48 28 38 mph 996.8mb 18f
8:42 29 41 mph 996.8mb 18f
8:36 31 47 mph 996.9mb 18f
8:30 32 45 mph 997mb 18f
8:24 28 40 mph 997.2mb 18f
8:18 23 34 mph 997.4mb 17f
8:12 30 44 mph 997.1mb 17f
8:06 29 41 mph 997.2mb 17f
8:00 29 40 mph 997.4mb 17f
7:54 29 43 mph 997.4mb 17f
7:48 31 44 mph 997.4mb 17f
7:42 30 41 mph 997.6mb 17f
7:36 25 40 mph 997.8mb 17f
7:30 29 44 mph 997.7mb 17f
7:24 29 44 mph 997.7mb 17f
7:18 26 37 mph 997.7mb 17f
7:12 30 49 mph 997.3mb 17f
7:06 32 44 mph 997.1mb 17f
7:00 31 45 mph 997.2mb 17f
6:54 30 39 mph 997mb 17f
6:48 33 55 mph 996.7mb 18f
6:42 32 44 mph 996.8mb 18f
6:36 30 45 mph 997mb 18f
6:30 32 41 mph 996.9mb 18f
6:24 25 37 mph 997.3mb 18f
6:18 29 43 mph 997.2mb 18f
6:12 30 40 mph 997mb 18f
6:06 31 43 mph 996.9mb 18f
6:00 26 44 mph 997.1mb 18f
5:54 28 36 mph 996.9mb 18f
5:48 29 45 mph 997mb 18f
5:42 31 44 mph 997.1mb 18f
5:36 26 37 mph 997.2mb 18f
5:30 29 39 mph 997.1mb 18f
5:24 30 44 mph 997mb 18f
5:18 25 40 mph 997mb 18f
5:12 30 43 mph 996.8mb 18f
5:06 29 54 mph 996.8mb 19f
5:00 30 45 mph 996.6mb 19f
4:54 32 49 mph 996.6mb 18f
4:48 30 45 mph 996.8mb 19f
4:42 32 43 mph 996.8mb 19f
4:36 29 41 mph 997mb 19f
4:30 28 44 mph 997.2mb 19f
4:24 30 44 mph 997.1mb 19f
4:18 25 40 mph 997.4mb 19f
4:12 30 45 mph 997.3mb 19f
4:06 30 41 mph 997.4mb 19f
3:54 32 45 mph 997.4mb 20f
3:48 29 43 mph 997.7mb 20f
3:42 29 40 mph 997.5mb 20f
3:36 28 45 mph 997.8mb 20f
3:30 30 40 mph 997.6mb 20f
3:24 31 48 mph 997.5mb 20f
3:18 28 38 mph 997.8mb 20f
3:12 28 38 mph 997.9mb 20f
3:06 26 37 mph 998.2mb 20f
3:00 25 36 mph 998.4mb 20f
2:54 26 37 mph 998.5mb 21f
2:48 24 33 mph 998.6mb 21f
2:42 28 37 mph 998.7mb 21f
2:36 29 38 mph 998.9mb 21f
2:30 25 36 mph 999.3mb 22f
2:24 25 36 mph 999.6mb 22f
2:18 25 32 mph 999.8mb 22f
2:12 25 34 mph 999.7mb 23f
2:06 28 38 mph 999.6mb 23f
2:00 25 39 mph 999.7mb 24f
1:54 30 43 mph 999.4mb 24f
1:48 30 46 mph 999.5mb 26f
1:42 31 44 mph 999.5mb 26f
1:36 33 46 mph 999.7mb 26f
1:30 34 51 mph 999.7mb 27f
1:24 30 39 mph 1000.2mb 27f
1:18 32 43 mph 1000.2mb 28f
1:12 30 40 mph 1000.2mb 28f
1:06 34 45 mph 1000.1mb 29f
1:00 32 44 mph 1000.5mb 29f
12:54 33 46 mph 1000.6mb 29f
12:48 36 49 mph 1000.7mb 29f
12:42 38 56 mph 1000.8mb 29f
12:36 38 52 mph 1001mb 30f
12:30 31 46 mph 1001.5mb 30f
12:24 30 38 mph 1001.8mb 30f
12:18 31 41 mph 1001.9mb 29f
12:12 32 44 mph 1002mb 29f
12:06 32 40 mph 1002mb 29f
12:00 30 43 mph 1002.5mb 29f
Seg 01/26 11:54 32 41 mph 1002.6mb 29f
11:48 26 34 mph 1003mb 29f
11:42 29 39 mph 1003.1mb 29f
11:36 30 38 mph 1003.4mb 29f
11:30 32 43 mph 1003.6mb 29f
11:24 31 45 mph 1004mb 29f
11:18 32 46 mph 1004.1mb 29f
11:12 30 38 mph 1004.3mb 29f
11:06 36 46 mph 1004.3mb 30f
11:00 32 49 mph 1004.6mb 30f
10:54 36 46 mph 1004.5mb 29f
10:48 37 47 mph 1004.7mb 30f
10:42 31 41 mph 1005.2mb 30f
10:36 33 41 mph 1005.5mb 30f
10:30 33 43 mph 1005.9mb 30f
10:24 34 44 mph 1006.1mb 30f
10:18 29 40 mph 1006.3mb 30f
10:12 30 37 mph 1006.3mb 30f
10:06 29 39 mph 1006.3mb 30f
10:00 30 43 mph 1006.3mb 29f
9:54 29 43 mph 1006.5mb 29f
9:48 28 32 mph 1006.9mb 29f
9:42 29 34 mph 1007.3mb 29f
9:36 28 37 mph 1007.6mb 29f
9:30 30 39 mph 1007.9mb 29f
9:24 31 39 mph 1008mb 29f
9:18 30 37 mph 1008.2mb 30f
9:12 26 33 mph 1008.5mb 30f
9:06 30 38 mph 1008.6mb 30f
9:00 29 34 mph 1009.1mb 30f
8:54 26 32 mph 1009.3mb 30f
8:48  -  mph 1009.5mb 30f
8:42  -  mph 1009.6mb 30f
8:36  -  mph 1009.7mb 30f
8:30 22 28 mph 1010.1mb 30f
8:24 23 29 mph 1010.7mb 30f
8:18 24 32 mph 1010.8mb 30f
8:12 23 31 mph 1011mb 30f
8:06 23 28 mph 1011mb 30f
8:00 28 39 mph 1011mb 29f
7:54 25 33 mph 1011.1mb 30f
7:48 23 28 mph 1011.2mb 30f
7:42 25 30 mph 1011.3mb 30f
7:36 24 29 mph 1011.7mb 30f
7:30 23 30 mph 1011.7mb 30f
7:24 23 28 mph 1012mb 30f
7:18 23 28 mph 1012.3mb 30f
7:12 22 29 mph 1012.6mb 30f
7:06 21 30 mph 1012.6mb 30f
7:00 22 28 mph 1012.4mb 30f
6:54 21 28 mph 1012.3mb 30f
6:48 21 28 mph 1012.5mb 30f
6:42 20 24 mph 1012.6mb 30f
6:36 18 21 mph 1012.7mb 30f
6:30 21 26 mph 1012.5mb 30f
6:24 20 22 mph 1012.7mb 30f
6:18 20 24 mph 1012.6mb 30f
6:12 20 25 mph 1012.7mb 30f
6:06 21 24 mph 1012.8mb 30f
6:00 20 23 mph 1012.9mb 30f
5:54 20 25 mph 1013mb 30f
5:48 20 24 mph 1013.2mb 30f
5:42 18 23 mph 1013.3mb 30f
5:36 17 22 mph 1013.5mb 30f
5:30 18 25 mph 1013.6mb 30f
5:24 17 21 mph 1013.7mb 30f
5:18 17 22 mph 1013.7mb 30f
5:12 18 22 mph 1013.8mb 30f
5:06 17 26 mph 1013.8mb 30f
5:00 16 20 mph 1014mb 30f
4:54 16 22 mph 1014mb 30f
4:48 16 21 mph 1013.8mb 30f
4:42 17 21 mph 1013.8mb 29f
4:36 20 22 mph 1013.5mb 30f
4:30 17 21 mph 1013.6mb 29f
4:24 16 20 mph 1013.5mb 30f
4:18 18 23 mph 1013.7mb 29f
4:12 17 22 mph 1013.8mb 29f
4:06 17 23 mph 1014mb 29f
4:00 15 21 mph 1014mb 29f
3:54 15 18 mph 1014mb 29f
3:48 14 17 mph 1014.1mb 29f
3:42 15 18 mph 1014mb 30f
3:36 15 20 mph 1014mb 29f
3:30 14 17 mph 1014mb 29f
3:24 16 22 mph 1013.9mb 29f
3:18 15 18 mph 1013.9mb 29f
3:12 15 17 mph 1014.1mb 29f
3:06 14 17 mph 1014.1mb 29f
3:00 15 20 mph 1014.1mb 29f
2:54 15 17 mph 1014.3mb 29f
2:48 14 16 mph 1014.6mb 29f
2:42 15 18 mph 1014.5mb 29f
2:36 15 16 mph 1014.5mb 29f
2:30 14 17 mph 1014.7mb 29f
2:24 13 15 mph 1014.9mb 29f
2:18 11 14 mph 1014.7mb 28f
2:12 11 14 mph 1014.6mb 28f
2:06 11 14 mph 1014.8mb 27f
2:00 10 14 mph 1014.8mb 27f
1:54 13 15 mph 1014.6mb 27f
1:48 11 14 mph 1014.9mb 27f
1:42 11 14 mph 1014.9mb 27f
1:36 11 14 mph 1015.1mb 27f
1:30 13 15 mph 1015.4mb 26f
1:24 13 14 mph 1015.5mb 26f
1:18 13 16 mph 1015.5mb 26f
1:12 13 15 mph 1015.5mb 26f
1:06 13 15 mph 1015.7mb 25f
1:00 15 20 mph 1015.5mb 25f
12:54 13 14 mph 1015.8mb 25f
12:48 14 16 mph 1015.9mb 25f
12:42 11 15 mph 1016mb 25f
12:36 14 17 mph 1016mb 24f
12:30 13 16 mph 1016.1mb 24f
12:24 13 15 mph 1016.3mb 24f
12:18 13 16 mph 1016.5mb 24f
12:12 13 15 mph 1016.7mb 24f
12:06 14 17 mph 1016.9mb 24f
12:00 13 16 mph 1016.9mb 24f
11:54 14 17 mph 1017.1mb 23f
11:48 13 17 mph 1017.2mb 23f
11:42 14 16 mph 1017.4mb 23f
11:36 11 16 mph 1017.5mb 23f
11:30 11 14 mph 1017.5mb 23f
11:24 11 14 mph 1017.6mb 22f
11:18 10 14 mph 1017.7mb 22f
11:12 10 15 mph 1017.9mb 22f
11:06 13 15 mph 1018.2mb 22f
11:00 11 14 mph 1018.4mb 22f
10:54 11 14 mph 1018.4mb 22f
10:48 9 13 mph 1018.3mb 22f
10:42 13 18 mph 1018.3mb 22f
10:36 13 16 mph 1018.3mb 21f
10:30 13 16 mph 1018.5mb 21f
10:24 14 17 mph 1018.4mb 21f
10:18 11 15 mph 1018.5mb 21f
10:12 14 17 mph 1018.5mb 20f
10:06 14 18 mph 1018.5mb 20f
10:00 16 21 mph 1018.3mb 20f
9:54 13 16 mph 1018.3mb 20f
9:48 13 16 mph 1018.4mb 19f
9:42 16 20 mph 1018.4mb 19f
9:36 17 22 mph 1018.3mb 19f
9:30 14 20 mph 1018.4mb 19f
9:24 11 16 mph 1018.5mb 19f
9:18 15 18 mph 1018.5mb 19f
9:12 14 17 mph 1018.6mb 19f
9:06 14 18 mph 1018.6mb 19f
9:00 11 15 mph 1018.6mb 19f
8:54 14 17 mph 1018.6mb 19f
8:48 14 18 mph 1018.6mb 19f
8:42 15 18 mph 1018.6mb 18f
8:36 16 21 mph 1018.7mb 18f
8:30 13 15 mph 1018.8mb 18f
8:24 14 17 mph 1018.8mb 18f
8:18 15 18 mph 1018.8mb 18f
8:12 11 16 mph 1018.9mb 18f
8:06 13 16 mph 1018.9mb 18f
8:00 13 16 mph 1018.9mb 18f
7:54 10 14 mph 1019mb 19f
7:48 10 13 mph 1019mb 18f
7:42 10 11 mph 1018.9mb 18f
7:36 11 15 mph 1019mb 18f
7:30 9 14 mph 1019.1mb 18f
7:24 10 13 mph 1019.1mb 19f
7:18 10 14 mph 1018.9mb 19f
7:12 13 15 mph 1018.8mb 19f
7:06 13 15 mph 1018.9mb 19f
7:00 9 11 mph 1018.9mb 19f
6:54 13 16 mph 1018.8mb 18f
6:48 11 16 mph 1018.7mb 19f
6:42 13 15 mph 1018.7mb 19f
6:36 13 17 mph 1018.7mb 19f
6:30 9 13 mph 1018.8mb 19f
6:24 11 15 mph 1018.8mb 19f
6:18 11 14 mph 1018.7mb 19f
6:12 13 15 mph 1018.8mb 19f
6:06 9 13 mph 1018.7mb 19f
6:00 11 15 mph 1018.7mb 19f
5:54 13 16 mph 1018.8mb 19f
5:48 11 14 mph 1018.6mb 19f
5:42 11 16 mph 1018.4mb 19f
5:36 14 16 mph 1018.3mb 20f
5:30 11 15 mph 1018.2mb 20f
5:24 14 17 mph 1018.3mb 20f
5:18 13 16 mph 1018.3mb 20f
5:12 13 17 mph 1018.4mb 20f
5:06 13 17 mph 1018.3mb 20f
5:00 13 16 mph 1018.1mb 20f
4:54 13 17 mph 1017.9mb 20f
4:48 14 16 mph 1018mb 20f
4:42 11 15 mph 1018.1mb 20f
4:36 14 16 mph 1018.1mb 21f
4:30 13 16 mph 1018mb 21f
4:24 14 17 mph 1017.9mb 21f
4:18 14 16 mph 1017.8mb 21f
4:12 14 16 mph 1017.8mb 21f
4:06 11 15 mph 1017.8mb 22f
4:00 10 13 mph 1017.8mb 22f
3:54 11 15 mph 1017.8mb 22f
3:48 11 15 mph 1017.8mb 22f
3:42 10 14 mph 1017.7mb 22f
3:36 11 14 mph 1017.7mb 22f
3:30 10 14 mph 1017.8mb 22f
3:24 14 15 mph 1017.7mb 22f
3:18 13 16 mph 1017.6mb 22f
3:12 15 18 mph 1017.7mb 22f
3:06 11 14 mph 1017.7mb 23f
3:00 10 13 mph 1017.7mb 23f
2:54 9 11 mph 1017.7mb 23f
2:48 8 11 mph 1017.5mb 23f
2:42 11 15 mph 1017.4mb 23f
2:36 11 14 mph 1017.3mb 23f
2:30 15 20 mph 1017.2mb 23f
2:24 13 17 mph 1017.3mb 23f
2:18 10 13 mph 1017.3mb 23f
2:12 9 14 mph 1017.3mb 23f
2:06 11 14 mph 1017.2mb 23f
2:00 14 16 mph 1017.1mb 24f
1:54 13 16 mph 1017.1mb 24f
1:48 9 11 mph 1017.1mb 24f
1:42 9 11 mph 1017.1mb 24f
1:36 8 10 mph 1016.7mb 24f
1:30 9 13 mph 1016.7mb 24f
1:24 10 14 mph 1016.7mb 24f
1:18 10 13 mph 1016.8mb 24f
1:12 13 16 mph 1016.7mb 24f
1:06 9 11 mph 1016.6mb 24f
1:00 10 13 mph 1016.6mb 24f
12:54 8 11 mph 1016.6mb 25f
12:48 8 10 mph 1016.6mb 25f
12:42 6 10 mph 1016.8mb 25f
12:36 6 7 mph 1016.5mb 25f
12:30 7 9 mph 1016.2mb 25f
12:24 8 10 mph 1016.4mb 25f
12:18 9 11 mph 1016.3mb 25f
12:12 8 10 mph 1016.2mb 25f
12:06 7 9 mph 1016.3mb 25f
12:00 8 11 mph 1016.4mb 26f
Dom 01/25 11:54 9 14 mph 1016.4mb 26f
11:48 9 13 mph 1016.4mb 26f
11:42 7 9 mph 1016.5mb 26f
11:36 6 8 mph 1016.3mb 26f
11:30 6 8 mph 1016.2mb 26f
11:24 6 9 mph 1016.1mb 26f
11:18 3 6 mph 1016.1mb 26f
11:12 6 8 mph 1015.7mb 26f
11:06 6 8 mph 1015.7mb 26f
11:00 8 11 mph 1015.5mb 26f
10:54 7 9 mph 1015.3mb 26f
10:48 6 7 mph 1015.2mb 26f
10:42 6 9 mph 1015.1mb 27f
10:36 8 13 mph 1014.9mb 27f
10:30 7 10 mph 1014.9mb 27f
10:24 5 7 mph 1014.9mb 27f
10:18 7 9 mph 1014.7mb 27f
10:12 6 8 mph 1014.6mb 27f
10:06 6 8 mph 1014.6mb 27f
10:00 5 7 mph 1014.5mb 27f
9:54 5 6 mph 1014.4mb 28f
9:48 7 10 mph 1014.2mb 28f
9:42 8 13 mph 1014mb 28f
9:36 9 10 mph 1014mb 28f
9:30 8 10 mph 1013.9mb 28f
9:24 13 17 mph 1014mb 28f
9:18 13 16 mph 1013.7mb 28f
9:12 9 14 mph 1013.6mb 28f
9:06 9 11 mph 1013.7mb 29f
9:00 9 13 mph 1013.6mb 29f
8:54 13 16 mph 1013.3mb 29f
8:48 11 15 mph 1013.4mb 29f
8:42 14 18 mph 1013.2mb 29f
8:36 13 18 mph 1013.1mb 29f
8:30 11 16 mph 1013.1mb 29f
8:24 14 18 mph 1013mb 29f
8:18 9 13 mph 1012.8mb 29f
8:12 8 13 mph 1012.8mb 29f
8:06 9 14 mph 1012.6mb 30f
8:00 14 18 mph 1012.5mb 30f
7:54 13 16 mph 1012.5mb 30f
7:48 13 17 mph 1012.5mb 30f
7:42 13 18 mph 1012.6mb 31f
7:36 14 18 mph 1012.5mb 31f
7:30 10 15 mph 1012.6mb 31f
7:24 11 16 mph 1012.4mb 31f
7:18 14 22 mph 1012.1mb 31f
7:12 17 23 mph 1011.9mb 31f
7:06 16 24 mph 1011.9mb 31f
7:00 16 21 mph 1011.6mb 31f
6:54 17 22 mph 1011.4mb 32f
6:48 16 18 mph 1011.5mb 32f
6:42 14 17 mph 1011.6mb 32f
6:36 17 21 mph 1011.3mb 32f
6:30 15 18 mph 1011.2mb 32f
6:24 16 20 mph 1010.9mb 32f
6:18 13 16 mph 1010.7mb 32f
6:12 14 18 mph 1010.6mb 32f
6:06 16 20 mph 1010.3mb 32f
6:00 16 22 mph 1009.9mb 33f
5:54 15 18 mph 1009.8mb 33f
5:48 14 17 mph 1009.6mb 33f
5:42 15 18 mph 1009.2mb 33f
5:36 16 21 mph 1009.1mb 33f
5:30 15 20 mph 1009mb 33f
5:24 18 22 mph 1008.7mb 33f
5:18 20 24 mph 1008.6mb 33f
5:12 20 23 mph 1008.5mb 33f
5:06 18 24 mph 1008.5mb 34f
5:00 18 21 mph 1008.4mb 34f
4:54 17 23 mph 1008.3mb 34f
4:48 16 21 mph 1008.2mb 34f
4:42 14 18 mph 1008.2mb 34f
4:36 16 18 mph 1008mb 34f
4:30 15 17 mph 1007.9mb 35f
4:24 18 22 mph 1007.7mb 34f
4:18 18 22 mph 1007.5mb 35f
4:12 22 28 mph 1007.2mb 35f
4:06 21 24 mph 1007mb 35f
4:00 17 21 mph 1006.8mb 35f
3:54 21 24 mph 1006.5mb 35f
3:48 26 30 mph 1006.3mb 35f
3:42 20 23 mph 1006.4mb 36f
3:36 23 30 mph 1006.4mb 36f
3:30 22 28 mph 1006.4mb 36f
3:24 22 28 mph 1006.3mb 36f
3:18 23 31 mph 1005.9mb 36f
3:12 26 31 mph 1005.7mb 36f
3:06 22 25 mph 1005.7mb 37f
3:00 24 30 mph 1005.6mb 38f
2:54 23 29 mph 1005.6mb 38f
2:48 18 22 mph 1005.5mb 38f
2:42 21 25 mph 1005.4mb 37f
2:36 24 29 mph 1005.3mb 37f
2:30 17 23 mph 1005.3mb 37f
2:24 26 33 mph 1004.9mb 38f
2:18 24 31 mph 1004.8mb 38f
2:12 25 30 mph 1004.6mb 37f
2:06 25 30 mph 1004.4mb 37f
2:00 24 29 mph 1004.3mb 38f
1:54 22 29 mph 1004.2mb 37f
1:48 22 28 mph 1004.1mb 37f
1:42 22 29 mph 1004.1mb 38f
1:36 23 29 mph 1003.9mb 37f
1:30 25 29 mph 1003.8mb 37f
1:24 22 28 mph 1003.7mb 37f
1:18 25 30 mph 1003.5mb 38f
1:12 24 29 mph 1003.4mb 38f
1:06 21 28 mph 1003.4mb 38f
1:00 22 30 mph 1003.3mb 39f
12:54 21 29 mph 1003.3mb 38f
12:48 24 30 mph 1003.2mb 39f
12:42 29 33 mph 1003.1mb 38f
12:36 22 30 mph 1003.2mb 38f
12:30 21 26 mph 1003.2mb 38f
12:24 21 26 mph 1003.3mb 39f
12:18 22 30 mph 1003.3mb 39f
12:12 22 31 mph 1003.2mb 39f
12:06 24 30 mph 1003.2mb 38f
12:00 25 32 mph 1003.2mb 39f
11:54 26 33 mph 1003.1mb 38f
11:48 22 26 mph 1003.2mb 38f
11:42 28 36 mph 1003.1mb 38f
11:36 24 30 mph 1003.2mb 38f
11:30 28 33 mph 1003mb 38f
11:24 22 29 mph 1003.2mb 38f
11:18 22 26 mph 1003.1mb 38f
11:12 22 25 mph 1003.1mb 38f
11:06 22 29 mph 1002.9mb 38f
11:00 23 28 mph 1002.8mb 38f
10:54 22 28 mph 1002.8mb 37f
10:48 22 26 mph 1002.9mb 37f
10:42 23 26 mph 1002.9mb 37f
10:36 22 26 mph 1002.8mb 37f
10:30 23 28 mph 1002.7mb 37f
10:24 23 30 mph 1002.7mb 37f
10:18 24 30 mph 1002.6mb 37f
10:12 24 28 mph 1002.6mb 37f
10:06 26 32 mph 1002.6mb 37f
10:00 22 28 mph 1002.6mb 37f
9:54 23 29 mph 1002.6mb 37f
9:48 22 24 mph 1002.5mb 37f
9:42 22 26 mph 1002.3mb 37f
9:36 22 25 mph 1002.1mb 36f
9:30 21 25 mph 1002mb 36f
9:24 23 26 mph 1001.9mb 36f
9:18 21 23 mph 1001.8mb 36f
9:12 20 24 mph 1001.8mb 36f
9:06 21 26 mph 1001.7mb 36f
9:00 18 23 mph 1001.6mb 36f
8:54 21 23 mph 1001.5mb 36f
8:48 22 25 mph 1001.4mb 36f
8:42 22 26 mph 1001.3mb 35f
8:36 17 21 mph 1001.2mb 35f
8:30 16 17 mph 1001.2mb 35f
8:24 17 21 mph 1001.2mb 35f
8:18 17 21 mph 1001.1mb 35f
8:12 18 22 mph 1001.1mb 35f
8:06 20 22 mph 1001mb 35f
8:00 20 22 mph 1000.9mb 35f
7:54 17 21 mph 1000.8mb 35f
7:48 17 21 mph 1000.6mb 34f
7:42 15 18 mph 1000.5mb 34f
7:36 17 20 mph 1000.3mb 34f
7:30 17 21 mph 1000.2mb 34f
7:24 18 21 mph 1000.1mb 34f
7:18 17 22 mph 1000.1mb 34f
7:12 20 23 mph 999.9mb 34f
7:06 17 21 mph 999.7mb 34f
7:00 20 23 mph 999.6mb 34f
6:54 21 24 mph 999.3mb 34f
6:48 23 26 mph 999.1mb 34f
6:42 24 28 mph 999mb 34f
6:36 23 26 mph 999mb 34f
6:30 21 25 mph 999mb 34f
6:24 21 28 mph 998.8mb 34f
6:18 17 23 mph 998.8mb 34f
6:12 17 22 mph 998.7mb 34f
6:06 16 21 mph 998.6mb 34f
6:00 17 22 mph 998.5mb -
5:54 16 20 mph 998.4mb -
5:48 15 18 mph 998.4mb 35f
5:42 14 18 mph 998.3mb 35f
5:36 16 23 mph 998.1mb 35f
5:30 14 17 mph 998.1mb 35f
5:24 14 17 mph 998mb 35f
5:18 15 18 mph 997.9mb 35f
5:12 15 17 mph 997.9mb 35f
5:06 15 18 mph 997.8mb 35f
5:00 17 23 mph 997.6mb 35f
4:54 15 20 mph 997.6mb 35f
4:48 16 21 mph 997.5mb 35f
4:42 14 17 mph 997.5mb 35f
4:36 16 20 mph 997.4mb 35f
4:30 16 21 mph 997.3mb 34f
4:24 16 20 mph 997.2mb 34f
4:18 17 21 mph 997.1mb 35f
4:12 18 23 mph 997mb 35f
4:06 17 23 mph 996.9mb 34f
4:00 21 26 mph 996.9mb 34f
3:54 18 23 mph 996.9mb 35f
3:48 18 23 mph 996.8mb 34f
3:42 20 25 mph 996.6mb 34f
3:36 17 22 mph 996.5mb 34f
3:30 17 21 mph 996.4mb 34f
3:24 16 21 mph 996.4mb 34f
3:18 16 22 mph 996.3mb 34f
3:12 15 18 mph 996.2mb 34f
3:06 17 21 mph 996.1mb 33f
3:00 20 24 mph 996mb 33f
2:54 18 24 mph 996mb 33f
2:48 16 20 mph 995.9mb 33f
2:42 16 20 mph 995.8mb 33f
2:36 18 22 mph 995.8mb 33f
2:30 17 22 mph 995.7mb 33f
2:24 17 22 mph 995.5mb 33f
2:18 17 23 mph 995.4mb 33f
2:12 16 21 mph 995.4mb 33f
2:06 16 20 mph 995.2mb 33f
2:00 17 20 mph 995mb 33f
1:54 16 18 mph 994.9mb 33f
1:48 17 22 mph 994.7mb -
1:42 14 17 mph 994.7mb -
1:36 16 21 mph 994.5mb -
1:30 16 20 mph 994.4mb 34f
1:24 15 18 mph 994.2mb 34f
1:18 18 22 mph 994mb 34f
1:12 17 21 mph 994mb 34f
1:06 17 20 mph 993.8mb 34f
1:00 17 20 mph 993.8mb 34f
12:54 17 21 mph 993.5mb 34f
12:48 16 18 mph 993.4mb 34f
12:42 13 15 mph 993.4mb 34f
12:36 14 17 mph 993.4mb 34f
12:30 14 15 mph 993.4mb 34f
12:24 13 15 mph 993.2mb 35f
12:18 11 15 mph 993.1mb 34f
12:12 14 17 mph 993mb 34f
12:06 11 15 mph 992.9mb 35f
12:00 10 14 mph 992.8mb 35f
Sáb 01/24 11:54 11 15 mph 992.5mb 35f
11:48 10 14 mph 992.4mb 35f
11:42 9 14 mph 992.3mb 35f
11:36 11 15 mph 992.3mb 35f
11:30 11 15 mph 992.3mb 35f
11:24 11 14 mph 992.1mb 35f
11:18 11 15 mph 992.1mb 35f
11:12 11 15 mph 992.1mb 35f
11:06 11 15 mph 992.1mb 35f
11:00 11 15 mph 991.9mb 35f
10:54 13 16 mph 991.6mb 35f
10:48 14 16 mph 991.6mb 35f
10:42 13 16 mph 991.5mb 35f
10:36 14 16 mph 991.6mb 35f
10:30 13 16 mph 991.5mb 35f
10:24 11 15 mph 991.4mb 35f
10:18 10 14 mph 991.3mb 35f
10:12 10 14 mph 991.1mb 35f
10:06 9 13 mph 990.9mb 35f
10:00 9 11 mph 990.8mb 35f
9:54 8 11 mph 990.8mb 35f
9:48 8 13 mph 990.8mb 35f
9:42 9 11 mph 990.9mb 35f
9:36 10 13 mph 990.8mb 34f
9:30 10 14 mph 990.8mb 34f
9:24 10 13 mph 990.6mb 34f
9:18 9 13 mph 990.4mb 34f
9:12 10 13 mph 990.2mb 34f
9:06 10 14 mph 990.2mb 34f
9:00 9 14 mph 990mb 34f
8:54 13 16 mph 989.9mb 34f
8:48 9 14 mph 989.9mb 34f
8:42 10 15 mph 989.9mb 34f
8:36 9 13 mph 989.8mb 34f
8:30 9 11 mph 989.7mb 34f
8:24 13 17 mph 989.5mb 34f
8:18 15 24 mph 989.3mb 34f
8:12 11 17 mph 989.4mb 34f
8:06 11 15 mph 989.4mb 34f
8:00 14 18 mph 989.3mb 34f
7:54 13 17 mph 989.2mb 34f
7:48 14 17 mph 989mb 34f
7:42 14 20 mph 989mb 34f
7:36 14 17 mph 989.1mb 34f
7:30 13 18 mph 989mb 33f
7:24 17 23 mph 988.9mb 34f
7:18 11 15 mph 988.9mb 34f
7:12 13 17 mph 988.9mb 34f
7:06 14 18 mph 988.6mb 34f
7:00 11 14 mph 988.5mb 33f
6:54 13 18 mph 988.3mb 33f
6:48 10 13 mph 988.2mb 33f
6:42 10 15 mph 988.1mb 33f
6:36 13 16 mph 987.9mb 33f
6:30 10 16 mph 987.9mb 34f
6:24 14 18 mph 987.8mb 34f
6:18 11 15 mph 987.7mb 34f
6:12 11 15 mph 987.7mb 34f
6:06 13 16 mph 987.8mb 34f
6:00 14 18 mph 987.7mb 34f
5:54 13 17 mph 987.5mb 34f
5:48 15 20 mph 987.3mb 34f
5:42 15 21 mph 987.2mb 34f
5:36 11 15 mph 987.1mb 34f
5:30 16 22 mph 986.5mb 34f
5:24 15 20 mph 986.2mb 34f
5:18 15 21 mph 985.7mb 34f
5:12 18 24 mph 985.3mb 34f
5:06 16 22 mph 985.4mb 34f
5:00 17 24 mph 985.3mb 34f
4:54 17 25 mph 985.1mb 34f
4:48 17 25 mph 985mb 34f
4:42 17 24 mph 984.9mb 34f
4:36 18 26 mph 984.8mb 34f
4:30 17 29 mph 985.6mb 34f
4:24 16 22 mph 985.8mb 34f
4:18 20 26 mph 985.9mb 34f
4:12 17 23 mph 985.9mb 34f
4:06 17 23 mph 986.1mb 34f
4:00 17 25 mph 986.4mb 34f
3:54 18 28 mph 986.4mb 35f
3:48 21 31 mph 986.4mb 35f
3:42 16 22 mph 986.7mb 35f
3:36 17 23 mph 987.4mb 35f
3:30 18 26 mph 986.6mb 35f
3:24 20 25 mph 987.3mb 35f
3:18 17 24 mph 987.2mb 35f
3:12 18 26 mph 987.8mb 35f
3:06 17 26 mph 988.2mb 35f
3:00 16 22 mph 988.3mb 35f
2:54 18 24 mph 987.6mb 35f
2:48 20 29 mph 988.3mb 35f
2:42 20 26 mph 988.7mb 35f
2:36 16 21 mph 989.8mb 35f
2:30 17 23 mph 989.8mb 35f
2:24 18 24 mph 989.6mb 35f
2:18 17 24 mph 989.8mb 35f
2:12 18 23 mph 989.4mb 35f
2:06 17 24 mph 990.1mb 35f
2:00 16 23 mph 990.8mb 35f
1:54 17 28 mph 990.7mb 35f
1:48 17 23 mph 989.8mb 35f
1:42 21 28 mph 989.2mb 35f
1:36 17 22 mph 990.1mb 35f
1:30 16 21 mph 990.2mb 35f
1:24 16 22 mph 990.7mb 35f
1:18 16 22 mph 991.4mb 35f
1:12 15 21 mph 990.9mb 34f
1:06 21 24 mph 990.6mb 35f
1:00 21 25 mph 990.8mb 34f
12:54 16 22 mph 992.2mb 34f
12:48 14 20 mph 993.1mb 34f
12:42 16 21 mph 992.9mb 34f
12:36 18 24 mph 992.9mb 34f
12:30 16 20 mph 993.2mb 34f
12:24 16 21 mph 993.5mb 34f
12:18 14 18 mph 993.9mb 34f
12:12 15 20 mph 994mb 34f
12:06 16 18 mph 994mb 34f
12:00 15 20 mph 994.5mb 34f
11:54 16 25 mph 994.9mb 34f
11:48 16 21 mph 995.1mb 34f
11:42 16 18 mph 995mb 34f
11:36 16 20 mph 995.3mb 34f
11:30 16 20 mph 995.7mb 34f
11:24 17 21 mph 995.8mb 34f
11:18 17 21 mph 996.2mb 34f
11:12 17 22 mph 996.3mb 34f
11:06 17 21 mph 996.7mb 34f
11:00 17 22 mph 997.3mb 34f
10:54 16 21 mph 997.6mb 34f
10:48 16 20 mph 998mb 34f
10:42 14 17 mph 998.8mb 34f
10:36 13 15 mph 999.2mb 34f
10:30 13 15 mph 999.4mb 34f
10:24 14 15 mph 999.4mb 34f
10:18 14 15 mph 999.7mb 34f
10:12 11 15 mph 1000mb 34f
10:06 10 13 mph 1000.4mb 34f
10:00 11 14 mph 1000.4mb 34f
9:54 11 14 mph 1000.4mb 34f
9:48 11 13 mph 1000.7mb 34f
9:42 11 14 mph 1000.9mb 34f
9:36 10 13 mph 1001.3mb 34f
9:30 8 9 mph 1001.7mb 34f
9:24 8 10 mph 1002mb 34f
9:18 8 11 mph 1002.1mb 34f
9:12 8 10 mph 1002.2mb 34f
9:06 6 8 mph 1002.4mb 34f
9:00 6 8 mph 1002.1mb 34f
8:54 9 10 mph 1002mb 34f
8:48 9 11 mph 1002.2mb 34f
8:42 9 11 mph 1002.3mb 34f
8:36 10 11 mph 1002.4mb 34f
8:30 13 14 mph 1002.7mb 34f
8:24 13 14 mph 1003mb 34f
8:18 13 16 mph 1003mb 33f
8:12 14 15 mph 1003.2mb 33f
8:06 13 15 mph 1003.5mb 34f
8:00 11 14 mph 1003.8mb 33f
7:54 13 14 mph 1003.9mb 33f
7:48 14 15 mph 1004mb 33f
7:42 11 13 mph 1004.6mb 33f
7:36 9 10 mph 1004.9mb 33f
7:30 8 9 mph 1005.2mb 33f
7:24 7 9 mph 1005.3mb 33f
7:18 9 10 mph 1005.3mb 33f
7:12 10 11 mph 1005.5mb 33f
7:06 9
mph
1005.8mb 33f
7:00 7 8 mph 1006.1mb 33f
6:54 6 7 mph 1006.5mb 33f
6:48 5 6 mph 1006.7mb 33f
6:42 3
mph
1006.9mb 33f
6:36 3
mph
1007.1mb 33f
6:30 3
mph
1007.2mb 33f
6:24 2 3 mph 1007.3mb 33f
6:18  -  1 mph 1007.6mb 33f
6:12  -  1 mph 1007.7mb 33f
6:06 1 2 mph 1007.7mb 33f
6:00 1 2 mph 1008mb 33f
5:54 2
mph
1008.2mb 33f
5:48 2 3 mph - -
5:42 2 5 mph - -
5:36 3 5 mph - -
5:30 5 6 mph 1008.7mb 33f
5:24 6 7 mph 1008.9mb 33f
5:18 6 7 mph 1009mb 33f
5:12 5 6 mph 1009.1mb 33f
5:06 6
mph
1009mb 33f
5:00 7 8 mph 1009mb 33f
4:54 7 8 mph 1009.1mb 33f
4:48 7 8 mph 1009.1mb 33f
4:42 6 8 mph 1009.1mb 33f
4:36 7 9 mph 1009.3mb 34f
4:30 9 11 mph 1009.4mb 34f
4:24 11 13 mph 1009.4mb 34f
4:18 11 14 mph 1009.6mb 35f